FAB1337 SBYS-SBYS

Flight info

Callsign FAB1337
Flight time 1h 3m
Altitude FL145
Route DCT 2219S04736W DCT
Aircraft TUCA/L-V/C

Departure

Time 2026-04-23 02:41
Airport Campo Fontenelle (SBYS)

Arrival

Time 2026-04-23 03:44
Airport Campo Fontenelle (SBYS)
Time Latitude Longitude Altitude Speed Heading
2026-04-23 02:19 -21.98034 -47.33956 1971 ft 0 kts 269°
2026-04-23 02:25 -21.98034 -47.33957 1971 ft 2 kts 268°
2026-04-23 02:25 -21.98003 -47.33977 1971 ft 9 kts 359°
2026-04-23 02:26 -21.97970 -47.33980 1974 ft 8 kts 330°
2026-04-23 02:26 -21.98006 -47.34005 1972 ft 12 kts 179°
2026-04-23 02:26 -21.98111 -47.34005 1973 ft 14 kts 180°
2026-04-23 02:26 -21.98197 -47.34005 1973 ft 9 kts 179°
2026-04-23 02:27 -21.98270 -47.34005 1971 ft 11 kts 180°
2026-04-23 02:27 -21.98336 -47.34005 1973 ft 11 kts 181°
2026-04-23 02:27 -21.98427 -47.34006 1973 ft 15 kts 179°
2026-04-23 02:27 -21.98548 -47.34005 1972 ft 19 kts 181°
2026-04-23 02:28 -21.98691 -47.34004 1972 ft 22 kts 180°
2026-04-23 02:28 -21.98835 -47.34003 1974 ft 21 kts 179°
2026-04-23 02:28 -21.98976 -47.34002 1973 ft 20 kts 180°
2026-04-23 02:28 -21.99124 -47.34002 1975 ft 21 kts 180°
2026-04-23 02:29 -21.99251 -47.34001 1972 ft 18 kts 179°
2026-04-23 02:29 -21.99320 -47.33999 1971 ft 0 kts 183°
2026-04-23 02:29 -21.99328 -47.34002 1971 ft 0 kts 201°
2026-04-23 02:35 -21.99346 -47.34061 1970 ft 10 kts 271°
2026-04-23 02:35 -21.99331 -47.34111 1971 ft 2 kts 346°
2026-04-23 02:35 -21.99329 -47.34111 1971 ft 0 kts 359°
2026-04-23 02:35 -21.99313 -47.34121 1969 ft 5 kts 325°
2026-04-23 02:36 -21.99279 -47.34129 1970 ft 0 kts
2026-04-23 02:39 -21.99272 -47.34129 1970 ft 12 kts 356°
2026-04-23 02:39 -21.99007 -47.34132 1973 ft 64 kts 359°
2026-04-23 02:40 -21.98391 -47.34132 1973 ft 111 kts 360°
2026-04-23 02:40 -21.97526 -47.34131 2040 ft 139 kts 359°
2026-04-23 02:40 -21.96489 -47.34139 2258 ft 161 kts 357°
2026-04-23 02:40 -21.95345 -47.34232 2567 ft 168 kts 352°
2026-04-23 02:41 -21.94185 -47.34505 2827 ft 174 kts 340°
2026-04-23 02:41 -21.93114 -47.35097 3167 ft 172 kts 326°
2026-04-23 02:41 -21.92248 -47.35995 3416 ft 175 kts 306°
2026-04-23 02:41 -21.91501 -47.37029 3765 ft 177 kts 307°
2026-04-23 02:42 -21.90750 -47.38089 4070 ft 180 kts 304°
2026-04-23 02:42 -21.90010 -47.39194 4318 ft 185 kts 305°
2026-04-23 02:42 -21.89259 -47.40337 4528 ft 189 kts 304°
2026-04-23 02:42 -21.88514 -47.41498 4771 ft 190 kts 303°
2026-04-23 02:43 -21.87769 -47.42677 4958 ft 189 kts 304°
2026-04-23 02:43 -21.87065 -47.43841 5310 ft 183 kts 302°
2026-04-23 02:43 -21.86406 -47.44953 5811 ft 172 kts 302°
2026-04-23 02:43 -21.85792 -47.46016 6303 ft 164 kts 301°
2026-04-23 02:44 -21.85230 -47.47034 6722 ft 151 kts 302°
2026-04-23 02:44 -21.84738 -47.47955 7036 ft 136 kts 292°
2026-04-23 02:44 -21.84367 -47.48891 7519 ft 128 kts 288°
2026-04-23 02:44 -21.84090 -47.49832 7894 ft 136 kts 284°
2026-04-23 02:45 -21.83888 -47.50840 8284 ft 139 kts 271°
2026-04-23 02:45 -21.83931 -47.51875 8698 ft 136 kts 251°
2026-04-23 02:45 -21.84349 -47.52845 8928 ft 148 kts 238°
2026-04-23 02:45 -21.84969 -47.53723 9328 ft 148 kts 222°
2026-04-23 02:46 -21.85834 -47.54363 9560 ft 159 kts 205°
2026-04-23 02:46 -21.86853 -47.54868 9738 ft 168 kts 202°
2026-04-23 02:46 -21.87932 -47.55416 9838 ft 171 kts 204°
2026-04-23 02:46 -21.88975 -47.55938 10044 ft 163 kts 203°
2026-04-23 02:47 -21.90002 -47.56457 10227 ft 167 kts 205°
2026-04-23 02:47 -21.91027 -47.57021 10407 ft 166 kts 206°
2026-04-23 02:47 -21.92046 -47.57591 10641 ft 163 kts 205°
2026-04-23 02:47 -21.93062 -47.58078 10865 ft 159 kts 201°
2026-04-23 02:48 -21.94097 -47.58513 11103 ft 160 kts 198°
2026-04-23 02:48 -21.95142 -47.58919 11340 ft 161 kts 198°
2026-04-23 02:48 -21.96195 -47.59328 11577 ft 161 kts 197°
2026-04-23 02:48 -21.97254 -47.59677 11805 ft 159 kts 194°
2026-04-23 02:49 -21.98336 -47.59922 12037 ft 160 kts 187°
2026-04-23 02:49 -21.99431 -47.60047 12294 ft 159 kts 184°
2026-04-23 02:49 -22.00523 -47.60136 12540 ft 159 kts 182°
2026-04-23 02:49 -22.01639 -47.60213 12782 ft 159 kts 182°
2026-04-23 02:50 -22.02727 -47.60283 13026 ft 155 kts 182°
2026-04-23 02:50 -22.03797 -47.60349 13277 ft 153 kts 182°
2026-04-23 02:50 -22.04867 -47.60418 13473 ft 156 kts 182°
2026-04-23 02:50 -22.05969 -47.60487 13606 ft 163 kts 184°
2026-04-23 02:51 -22.07132 -47.60572 13659 ft 172 kts 183°
2026-04-23 02:51 -22.08358 -47.60672 13653 ft 180 kts 184°
2026-04-23 02:51 -22.09602 -47.60777 13645 ft 178 kts 183°
2026-04-23 02:51 -22.10829 -47.60876 13630 ft 179 kts 183°
2026-04-23 02:52 -22.12070 -47.60969 13621 ft 182 kts 182°
2026-04-23 02:52 -22.13359 -47.61096 13539 ft 188 kts 184°
2026-04-23 02:52 -22.14646 -47.61213 13592 ft 182 kts 185°
2026-04-23 02:52 -22.15900 -47.61329 13638 ft 183 kts 186°
2026-04-23 02:53 -22.16950 -47.61916 13791 ft 157 kts 225°
2026-04-23 02:53 -22.16906 -47.62982 13572 ft 184 kts 303°
2026-04-23 02:53 -22.15809 -47.63793 13210 ft 203 kts 340°
2026-04-23 02:53 -22.14518 -47.64215 13495 ft 181 kts 345°
2026-04-23 02:54 -22.13358 -47.64558 13754 ft 175 kts 343°
2026-04-23 02:54 -22.12166 -47.64938 13805 ft 179 kts 342°
2026-04-23 02:54 -22.11003 -47.65400 13774 ft 181 kts 338°
2026-04-23 02:54 -22.09836 -47.65898 13793 ft 186 kts 339°
2026-04-23 02:55 -22.08614 -47.66432 13625 ft 193 kts 339°
2026-04-23 02:55 -22.07349 -47.66967 13568 ft 196 kts 338°
2026-04-23 02:55 -22.06135 -47.67548 13570 ft 184 kts 327°
2026-04-23 02:55 -22.05353 -47.68554 13558 ft 177 kts 287°
2026-04-23 02:56 -22.05547 -47.69841 13036 ft 192 kts 230°
2026-04-23 02:56 -22.06733 -47.70557 12639 ft 209 kts 185°
2026-04-23 02:56 -22.08172 -47.70235 12458 ft 216 kts 153°
2026-04-23 02:56 -22.09427 -47.69415 12626 ft 206 kts 148°
2026-04-23 02:57 -22.10637 -47.68608 12683 ft 208 kts 148°
2026-04-23 02:57 -22.11873 -47.67776 12674 ft 208 kts 148°
2026-04-23 02:57 -22.13076 -47.66947 12629 ft 206 kts 148°
2026-04-23 02:57 -22.14322 -47.66214 12649 ft 205 kts 154°
2026-04-23 02:58 -22.15529 -47.65554 12576 ft 190 kts 153°
2026-04-23 02:58 -22.16685 -47.64942 12535 ft 178 kts 161°
2026-04-23 02:58 -22.17236 -47.63704 11691 ft 204 kts 74°
2026-04-23 02:58 -22.16530 -47.62472 11527 ft 183 kts 65°
2026-04-23 02:59 -22.16412 -47.61326 12231 ft 150 kts 120°
2026-04-23 02:59 -22.17242 -47.60626 12476 ft 160 kts 155°
2026-04-23 02:59 -22.18299 -47.60112 12646 ft 173 kts 155°
2026-04-23 02:59 -22.19452 -47.59578 12681 ft 188 kts 157°
2026-04-23 03:00 -22.20695 -47.59068 12802 ft 194 kts 162°
2026-04-23 03:00 -22.21999 -47.58657 12825 ft 197 kts 164°
2026-04-23 03:00 -22.23309 -47.58298 12934 ft 193 kts 166°
2026-04-23 03:00 -22.24521 -47.57682 12654 ft 207 kts 134°
2026-04-23 03:01 -22.25271 -47.56294 12356 ft 212 kts 120°
2026-04-23 03:01 -22.26129 -47.55073 12346 ft 204 kts 147°
2026-04-23 03:01 -22.27480 -47.54493 12202 ft 212 kts 162°
2026-04-23 03:01 -22.28880 -47.54050 12328 ft 205 kts 162°
2026-04-23 03:02 -22.30172 -47.53554 12381 ft 177 kts 160°
2026-04-23 03:02 -22.31260 -47.52998 12464 ft 178 kts 150°
2026-04-23 03:02 -22.32374 -47.52425 12799 ft 175 kts 160°
2026-04-23 03:02 -22.33553 -47.52307 13217 ft 172 kts 186°
2026-04-23 03:03 -22.34695 -47.52720 13484 ft 177 kts 210°
2026-04-23 03:03 -22.35577 -47.53683 13628 ft 190 kts 241°
2026-04-23 03:03 -22.35985 -47.54917 13615 ft 154 kts 260°
2026-04-23 03:03 -22.35829 -47.56084 13636 ft 166 kts 290°
2026-04-23 03:04 -22.35175 -47.56995 13629 ft 159 kts 323°
2026-04-23 03:04 -22.34140 -47.57562 13647 ft 174 kts 340°
2026-04-23 03:04 -22.32969 -47.57929 13665 ft 177 kts 346°
2026-04-23 03:04 -22.31780 -47.58206 13625 ft 166 kts 348°
2026-04-23 03:05 -22.30594 -47.58478 13621 ft 179 kts 348°
2026-04-23 03:05 -22.29407 -47.58770 13633 ft 178 kts 346°
2026-04-23 03:05 -22.28207 -47.59070 13638 ft 178 kts 347°
2026-04-23 03:05 -22.27023 -47.59389 13542 ft 181 kts 346°
2026-04-23 03:06 -22.25772 -47.59732 13338 ft 195 kts 344°
2026-04-23 03:06 -22.24409 -47.60135 12681 ft 198 kts 345°
2026-04-23 03:06 -22.23096 -47.60511 12679 ft 191 kts 345°
2026-04-23 03:06 -22.21836 -47.60880 12728 ft 186 kts 344°
2026-04-23 03:07 -22.20612 -47.61291 12743 ft 184 kts 332°
2026-04-23 03:07 -22.19763 -47.62260 12821 ft 178 kts 293°
2026-04-23 03:07 -22.19586 -47.63560 12825 ft 176 kts 262°
2026-04-23 03:07 -22.19974 -47.64799 12801 ft 176 kts 237°
2026-04-23 03:08 -22.20823 -47.65699 12869 ft 171 kts 207°
2026-04-23 03:08 -22.21962 -47.65955 12878 ft 170 kts 174°
2026-04-23 03:08 -22.23030 -47.65464 12892 ft 170 kts 140°
2026-04-23 03:08 -22.23661 -47.64408 12954 ft 170 kts 110°
2026-04-23 03:09 -22.23761 -47.63147 13016 ft 171 kts 82°
2026-04-23 03:09 -22.23281 -47.61961 13018 ft 176 kts 54°
2026-04-23 03:09 -22.22311 -47.61160 12980 ft 183 kts 22°
2026-04-23 03:09 -22.21047 -47.61108 12932 ft 186 kts 342°
2026-04-23 03:10 -22.20037 -47.61924 12951 ft 183 kts 310°
2026-04-23 03:10 -22.19221 -47.62977 12926 ft 184 kts 308°
2026-04-23 03:10 -22.18444 -47.64054 12922 ft 181 kts 307°
2026-04-23 03:10 -22.17688 -47.65095 12903 ft 174 kts 307°
2026-04-23 03:11 -22.17714 -47.66145 12499 ft 187 kts 195°
2026-04-23 03:11 -22.18949 -47.66526 12947 ft 172 kts 205°
2026-04-23 03:11 -22.19996 -47.67129 13345 ft 172 kts 207°
2026-04-23 03:11 -22.21071 -47.67728 13549 ft 171 kts 204°
2026-04-23 03:12 -22.22264 -47.67912 13612 ft 182 kts 172°
2026-04-23 03:12 -22.23434 -47.67300 13637 ft 195 kts 140°
2026-04-23 03:12 -22.24406 -47.66242 13674 ft 203 kts 131°
2026-04-23 03:12 -22.25301 -47.65073 13659 ft 201 kts 129°
2026-04-23 03:13 -22.26184 -47.63884 13639 ft 207 kts 129°
2026-04-23 03:13 -22.27092 -47.62659 13633 ft 208 kts 129°
2026-04-23 03:13 -22.27992 -47.61446 13650 ft 207 kts 130°
2026-04-23 03:13 -22.28885 -47.60218 13633 ft 211 kts 128°
2026-04-23 03:14 -22.29785 -47.58993 13611 ft 209 kts 129°
2026-04-23 03:14 -22.30681 -47.57770 13621 ft 207 kts 129°
2026-04-23 03:14 -22.31557 -47.56569 13604 ft 203 kts 128°
2026-04-23 03:14 -22.32433 -47.55360 13578 ft 208 kts 129°
2026-04-23 03:15 -22.33340 -47.54135 13577 ft 210 kts 129°
2026-04-23 03:15 -22.34250 -47.52916 13588 ft 209 kts 130°
2026-04-23 03:15 -22.35148 -47.51683 13620 ft 209 kts 129°
2026-04-23 03:15 -22.36039 -47.50453 13634 ft 211 kts 129°
2026-04-23 03:16 -22.36959 -47.49201 13628 ft 215 kts 129°
2026-04-23 03:16 -22.37887 -47.47919 13578 ft 219 kts 129°
2026-04-23 03:16 -22.39332 -47.45086 13575 ft 220 kts 98°
2026-04-23 03:17 -22.39095 -47.43469 13595 ft 222 kts 68°
2026-04-23 03:17 -22.38316 -47.42041 13607 ft 223 kts 49°
2026-04-23 03:17 -22.37071 -47.41130 13616 ft 202 kts 20°
2026-04-23 03:17 -22.35747 -47.41037 13604 ft 185 kts 348°
2026-04-23 03:18 -22.34601 -47.41555 13625 ft 175 kts 324°
2026-04-23 03:18 -22.33672 -47.42350 13622 ft 172 kts 317°
2026-04-23 03:18 -22.32777 -47.43241 13630 ft 173 kts 315°
2026-04-23 03:18 -22.31900 -47.44159 13626 ft 179 kts 314°
2026-04-23 03:19 -22.30982 -47.45143 13383 ft 199 kts 314°
2026-04-23 03:19 -22.29954 -47.46262 12707 ft 219 kts 312°
2026-04-23 03:19 -22.29027 -47.47292 13787 ft 71 kts 312°
2026-04-23 03:19 -22.29038 -47.47199 13959 ft 48 kts 122°
2026-04-23 03:20 -22.29451 -47.45957 12539 ft 204 kts 114°
2026-04-23 03:20 -22.30180 -47.44734 12661 ft 191 kts 141°
2026-04-23 03:20 -22.31432 -47.44313 12658 ft 194 kts 183°
2026-04-23 03:20 -22.32558 -47.44930 12604 ft 183 kts 228°
2026-04-23 03:21 -22.32997 -47.46189 12428 ft 187 kts 269°
2026-04-23 03:21 -22.32503 -47.47469 12368 ft 190 kts 315°
2026-04-23 03:21 -22.31332 -47.48084 12355 ft 189 kts 351°
2026-04-23 03:21 -22.30045 -47.48094 12416 ft 182 kts
2026-04-23 03:22 -22.28801 -47.48038 12430 ft 180 kts
2026-04-23 03:22 -22.27545 -47.47979 12386 ft 180 kts
2026-04-23 03:22 -22.26303 -47.47926 12418 ft 178 kts
2026-04-23 03:22 -22.25084 -47.47875 12514 ft 173 kts
2026-04-23 03:23 -22.23878 -47.47922 12550 ft 174 kts 358°
2026-04-23 03:23 -22.22677 -47.47978 12621 ft 172 kts 358°
2026-04-23 03:23 -22.21490 -47.48032 12650 ft 170 kts 358°
2026-04-23 03:23 -22.20318 -47.48073 12673 ft 169 kts 359°
2026-04-23 03:24 -22.19146 -47.48102 12703 ft 170 kts 359°
2026-04-23 03:24 -22.17891 -47.48102 12637 ft 190 kts
2026-04-23 03:24 -22.16534 -47.48092 12490 ft 197 kts
2026-04-23 03:24 -22.15171 -47.48078 12474 ft 195 kts
2026-04-23 03:25 -22.13742 -47.48056 11903 ft 222 kts
2026-04-23 03:25 -22.12095 -47.48024 11201 ft 248 kts
2026-04-23 03:25 -22.11328 -47.47957 12949 ft 104 kts 174°
2026-04-23 03:25 -22.10806 -47.47641 10926 ft 183 kts 23°
2026-04-23 03:26 -22.09720 -47.47180 10769 ft 170 kts 22°
2026-04-23 03:26 -22.08549 -47.46681 10649 ft 188 kts 23°
2026-04-23 03:26 -22.07363 -47.46268 10640 ft 171 kts 17°
2026-04-23 03:26 -22.06265 -47.45913 10600 ft 168 kts 21°
2026-04-23 03:27 -22.05228 -47.45552 10432 ft 160 kts 13°
2026-04-23 03:27 -22.04138 -47.45099 10528 ft 170 kts 28°
2026-04-23 03:27 -22.03049 -47.44508 10530 ft 182 kts 28°
2026-04-23 03:27 -22.01865 -47.43912 10387 ft 194 kts 26°
2026-04-23 03:28 -22.00589 -47.43281 10252 ft 208 kts 27°
2026-04-23 03:28 -21.99265 -47.42626 10079 ft 212 kts 26°
2026-04-23 03:28 -21.97963 -47.42003 9921 ft 206 kts 25°
2026-04-23 03:28 -21.96657 -47.41394 9804 ft 200 kts 23°
2026-04-23 03:29 -21.95389 -47.40829 9749 ft 195 kts 23°
2026-04-23 03:29 -21.94148 -47.40361 9586 ft 184 kts 20°
2026-04-23 03:29 -21.92964 -47.39863 9652 ft 185 kts 19°
2026-04-23 03:29 -21.91743 -47.39436 9798 ft 184 kts 18°
2026-04-23 03:30 -21.90487 -47.39008 9787 ft 192 kts 18°
2026-04-23 03:30 -21.89217 -47.38599 9790 ft 190 kts 17°
2026-04-23 03:30 -21.87925 -47.38358 9737 ft 186 kts 355°
2026-04-23 03:30 -21.86810 -47.38945 9577 ft 172 kts 314°
2026-04-23 03:31 -21.86279 -47.40060 9447 ft 170 kts 282°
2026-04-23 03:31 -21.86216 -47.41303 9317 ft 169 kts 264°
2026-04-23 03:31 -21.86416 -47.42559 9173 ft 171 kts 252°
2026-04-23 03:31 -21.86916 -47.43749 8966 ft 180 kts 234°
2026-04-23 03:32 -21.87830 -47.44658 8721 ft 181 kts 207°
2026-04-23 03:32 -21.89066 -47.44891 8475 ft 187 kts 175°
2026-04-23 03:32 -21.90391 -47.44834 8267 ft 194 kts 176°
2026-04-23 03:32 -21.91710 -47.44726 8007 ft 190 kts 176°
2026-04-23 03:33 -21.93059 -47.44654 7773 ft 197 kts 176°
2026-04-23 03:33 -21.94386 -47.44539 7510 ft 191 kts 174°
2026-04-23 03:33 -21.95702 -47.44409 7287 ft 190 kts 175°
2026-04-23 03:33 -21.96995 -47.44290 7062 ft 183 kts 175°
2026-04-23 03:34 -21.98225 -47.44133 6798 ft 177 kts 174°
2026-04-23 03:34 -21.99474 -47.44002 6590 ft 182 kts 174°
2026-04-23 03:34 -22.00725 -47.43839 6325 ft 179 kts 174°
2026-04-23 03:34 -22.01957 -47.43690 6089 ft 179 kts 173°
2026-04-23 03:35 -22.03202 -47.43553 5852 ft 182 kts 175°
2026-04-23 03:35 -22.04463 -47.43433 5616 ft 182 kts 174°
2026-04-23 03:35 -22.05736 -47.43319 5360 ft 185 kts 179°
2026-04-23 03:35 -22.06972 -47.43243 5128 ft 179 kts 175°
2026-04-23 03:36 -22.08165 -47.43138 4885 ft 172 kts 173°
2026-04-23 03:36 -22.09359 -47.42988 4646 ft 175 kts 169°
2026-04-23 03:36 -22.10489 -47.42646 4346 ft 162 kts 154°
2026-04-23 03:36 -22.11305 -47.41806 4053 ft 168 kts 126°
2026-04-23 03:37 -22.11772 -47.40645 3721 ft 168 kts 106°
2026-04-23 03:37 -22.11929 -47.39332 3519 ft 182 kts 94°
2026-04-23 03:37 -22.11791 -47.38034 3433 ft 174 kts 75°
2026-04-23 03:37 -22.11345 -47.36827 3477 ft 172 kts 70°
2026-04-23 03:38 -22.10802 -47.35690 3460 ft 171 kts 64°
2026-04-23 03:38 -22.10107 -47.34615 3467 ft 175 kts 52°
2026-04-23 03:38 -22.09103 -47.33894 3442 ft 175 kts 21°
2026-04-23 03:38 -22.07898 -47.33793 3482 ft 175 kts 358°
2026-04-23 03:39 -22.06675 -47.33865 3470 ft 178 kts 359°
2026-04-23 03:39 -22.05443 -47.33927 3463 ft 176 kts 357°
2026-04-23 03:39 -22.04213 -47.33998 3471 ft 175 kts 357°
2026-04-23 03:39 -22.03045 -47.34087 3363 ft 172 kts 356°
2026-04-23 03:40 -22.01860 -47.34014 3249 ft 154 kts 22°
2026-04-23 03:40 -22.00807 -47.34014 3109 ft 152 kts 352°
2026-04-23 03:40 -21.99664 -47.33911 3281 ft 176 kts
2026-04-23 03:40 -21.98460 -47.33868 3498 ft 170 kts
2026-04-23 03:41 -21.97373 -47.34196 3683 ft 178 kts 293°
2026-04-23 03:41 -21.98059 -47.34882 3404 ft 138 kts 191°
2026-04-23 03:41 -21.98876 -47.35314 3298 ft 156 kts 244°
2026-04-23 03:41 -21.98206 -47.35693 2921 ft 167 kts 76°
2026-04-23 03:42 -21.98740 -47.35665 2808 ft 146 kts 278°
2026-04-23 03:42 -21.98006 -47.35813 2889 ft 142 kts 71°
2026-04-23 03:42 -21.98589 -47.35289 2794 ft 132 kts 181°
2026-04-23 03:42 -21.99456 -47.35300 2905 ft 115 kts 179°
2026-04-23 03:43 -22.00165 -47.35298 2818 ft 107 kts 178°
2026-04-23 03:43 -22.00954 -47.35255 2735 ft 117 kts 161°
2026-04-23 03:43 -22.01217 -47.34541 2502 ft 122 kts 66°
2026-04-23 03:43 -22.00492 -47.34121 2234 ft 126 kts
2026-04-23 03:44 -21.99695 -47.34119 2052 ft 110 kts 359°
2026-04-23 03:44 -21.98974 -47.34115 1975 ft 91 kts 358°
2026-04-23 03:44 -21.98569 -47.34121 1975 ft 40 kts
2026-04-23 03:44 -21.98454 -47.34121 1973 ft 3 kts 359°
2026-04-23 03:45 -21.98414 -47.34089 1972 ft 12 kts 90°
2026-04-23 03:45 -21.98414 -47.34026 1971 ft 6 kts 88°
2026-04-23 03:45 -21.98358 -47.34004 1974 ft 13 kts
2026-04-23 03:45 -21.98309 -47.34004 1973 ft 5 kts
2026-04-23 03:46 -21.98247 -47.34005 1971 ft 12 kts 360°
2026-04-23 03:46 -21.98176 -47.34005 1973 ft 9 kts 359°
2026-04-23 03:46 -21.98156 -47.33975 1971 ft 9 kts 91°
2026-04-23 03:46 -21.98128 -47.33939 1971 ft 8 kts 359°
2026-04-23 03:47 -21.98072 -47.33939 1972 ft 2 kts 356°
2026-04-23 03:47 -21.98065 -47.33960 1971 ft 1 kts 268°
2026-04-23 03:47 -21.98065 -47.33961 1971 ft 0 kts 268°